Terminal Aerodrome Forecast
Issued by NWS

Home | Current Version | Previous Version | Text Only | Print | Product List | Glossary On
Versions: 1 2 3 4 5 6 7 8 9 10 11 12
000
FTAK31 PAFA 192339
TAFAOR
TAF
PAOR 192339Z 2000/2024 07005KT P6SM VCSH SCT060 BKN100 BKN150
     FM200600 00000KT P6SM SCT100 BKN150
     FM202000 VRB04KT P6SM FEW050 BKN120=

USA.gov is the U.S. government's official web portal to all federal, state and local government web resources and services.